sensor_id;sensor_type;location;lat;lon;timestamp;P1;durP1;ratioP1;P2;durP2;ratioP2
83055;SDS011;72881;43.514;1.510;2023-10-09T00:00:11;7.93;;;4.10;;
83055;SDS011;72881;43.514;1.510;2023-10-09T00:02:55;9.75;;;4.13;;
83055;SDS011;72881;43.514;1.510;2023-10-09T00:05:23;7.57;;;4.30;;
83055;SDS011;72881;43.514;1.510;2023-10-09T00:08:02;8.13;;;3.83;;
83055;SDS011;72881;43.514;1.510;2023-10-09T00:10:28;6.68;;;3.80;;
83055;SDS011;72881;43.514;1.510;2023-10-09T00:13:00;7.55;;;3.88;;
83055;SDS011;72881;43.514;1.510;2023-10-09T00:15:26;9.68;;;3.67;;
83055;SDS011;72881;43.514;1.510;2023-10-09T00:17:52;6.00;;;4.05;;
83055;SDS011;72881;43.514;1.510;2023-10-09T00:20:21;5.75;;;3.58;;
83055;SDS011;72881;43.514;1.510;2023-10-09T00:22:55;7.15;;;3.60;;
83055;SDS011;72881;43.514;1.510;2023-10-09T00:25:21;8.20;;;3.67;;
83055;SDS011;72881;43.514;1.510;2023-10-09T00:27:49;7.03;;;3.80;;
83055;SDS011;72881;43.514;1.510;2023-10-09T00:30:15;9.55;;;3.72;;
83055;SDS011;72881;43.514;1.510;2023-10-09T00:32:42;8.10;;;3.83;;
83055;SDS011;72881;43.514;1.510;2023-10-09T00:35:26;6.80;;;3.72;;
83055;SDS011;72881;43.514;1.510;2023-10-09T00:38:01;6.85;;;3.47;;
83055;SDS011;72881;43.514;1.510;2023-10-09T00:40:53;7.45;;;3.72;;
83055;SDS011;72881;43.514;1.510;2023-10-09T00:43:27;5.88;;;3.42;;
83055;SDS011;72881;43.514;1.510;2023-10-09T00:45:54;7.68;;;3.80;;
83055;SDS011;72881;43.514;1.510;2023-10-09T00:48:20;7.13;;;3.70;;
83055;SDS011;72881;43.514;1.510;2023-10-09T00:53:25;8.13;;;3.88;;
83055;SDS011;72881;43.514;1.510;2023-10-09T00:55:58;5.55;;;3.15;;
83055;SDS011;72881;43.514;1.510;2023-10-09T00:58:44;6.13;;;3.50;;
83055;SDS011;72881;43.514;1.510;2023-10-09T01:01:12;6.75;;;3.60;;
83055;SDS011;72881;43.514;1.510;2023-10-09T01:03:41;6.18;;;3.42;;
83055;SDS011;72881;43.514;1.510;2023-10-09T01:06:07;7.03;;;3.63;;
83055;SDS011;72881;43.514;1.510;2023-10-09T01:08:35;8.38;;;3.58;;
83055;SDS011;72881;43.514;1.510;2023-10-09T01:11:05;6.47;;;3.80;;
83055;SDS011;72881;43.514;1.510;2023-10-09T01:13:38;6.25;;;3.67;;
83055;SDS011;72881;43.514;1.510;2023-10-09T01:16:18;5.78;;;3.80;;
83055;SDS011;72881;43.514;1.510;2023-10-09T01:18:51;6.80;;;3.75;;
83055;SDS011;72881;43.514;1.510;2023-10-09T01:21:18;5.85;;;3.65;;
83055;SDS011;72881;43.514;1.510;2023-10-09T01:23:48;6.45;;;3.90;;
83055;SDS011;72881;43.514;1.510;2023-10-09T01:29:04;5.93;;;3.80;;
83055;SDS011;72881;43.514;1.510;2023-10-09T01:31:35;7.47;;;3.67;;
83055;SDS011;72881;43.514;1.510;2023-10-09T01:34:03;5.97;;;3.42;;
83055;SDS011;72881;43.514;1.510;2023-10-09T01:36:35;8.60;;;3.83;;
83055;SDS011;72881;43.514;1.510;2023-10-09T01:39:04;8.20;;;3.90;;
83055;SDS011;72881;43.514;1.510;2023-10-09T01:41:47;6.68;;;3.88;;
83055;SDS011;72881;43.514;1.510;2023-10-09T01:44:14;7.90;;;3.50;;
83055;SDS011;72881;43.514;1.510;2023-10-09T01:46:41;5.47;;;3.20;;
83055;SDS011;72881;43.514;1.510;2023-10-09T01:49:07;5.60;;;3.70;;
83055;SDS011;72881;43.514;1.510;2023-10-09T01:51:41;6.15;;;3.60;;
83055;SDS011;72881;43.514;1.510;2023-10-09T01:54:07;9.60;;;3.80;;
83055;SDS011;72881;43.514;1.510;2023-10-09T01:56:32;5.90;;;3.28;;
83055;SDS011;72881;43.514;1.510;2023-10-09T01:59:02;6.45;;;3.53;;
83055;SDS011;72881;43.514;1.510;2023-10-09T02:01:30;7.47;;;3.78;;
83055;SDS011;72881;43.514;1.510;2023-10-09T02:03:57;6.93;;;3.50;;
83055;SDS011;72881;43.514;1.510;2023-10-09T02:06:30;7.00;;;3.60;;
83055;SDS011;72881;43.514;1.510;2023-10-09T02:08:58;6.97;;;3.47;;
83055;SDS011;72881;43.514;1.510;2023-10-09T02:11:24;5.22;;;3.17;;
83055;SDS011;72881;43.514;1.510;2023-10-09T02:14:10;8.40;;;3.58;;
83055;SDS011;72881;43.514;1.510;2023-10-09T02:16:45;6.68;;;3.88;;
83055;SDS011;72881;43.514;1.510;2023-10-09T02:19:27;7.05;;;3.53;;
83055;SDS011;72881;43.514;1.510;2023-10-09T02:21:59;6.60;;;3.63;;
83055;SDS011;72881;43.514;1.510;2023-10-09T02:24:27;7.90;;;3.70;;
83055;SDS011;72881;43.514;1.510;2023-10-09T02:27:12;7.40;;;3.53;;
83055;SDS011;72881;43.514;1.510;2023-10-09T02:29:44;7.15;;;3.45;;
83055;SDS011;72881;43.514;1.510;2023-10-09T02:32:12;6.43;;;3.15;;
83055;SDS011;72881;43.514;1.510;2023-10-09T02:34:39;7.00;;;3.42;;
83055;SDS011;72881;43.514;1.510;2023-10-09T02:37:04;8.95;;;3.83;;
83055;SDS011;72881;43.514;1.510;2023-10-09T02:39:31;7.88;;;3.80;;
83055;SDS011;72881;43.514;1.510;2023-10-09T02:42:08;7.85;;;3.50;;
83055;SDS011;72881;43.514;1.510;2023-10-09T02:44:39;6.88;;;3.97;;
83055;SDS011;72881;43.514;1.510;2023-10-09T02:47:11;7.80;;;3.67;;
83055;SDS011;72881;43.514;1.510;2023-10-09T02:49:45;6.55;;;3.38;;
83055;SDS011;72881;43.514;1.510;2023-10-09T02:52:13;6.50;;;3.60;;
83055;SDS011;72881;43.514;1.510;2023-10-09T02:54:43;6.95;;;3.33;;
83055;SDS011;72881;43.514;1.510;2023-10-09T02:57:11;7.78;;;4.00;;
83055;SDS011;72881;43.514;1.510;2023-10-09T02:59:46;6.93;;;3.63;;
83055;SDS011;72881;43.514;1.510;2023-10-09T03:02:12;9.45;;;3.65;;
83055;SDS011;72881;43.514;1.510;2023-10-09T03:04:38;7.63;;;3.58;;
83055;SDS011;72881;43.514;1.510;2023-10-09T03:07:04;6.43;;;3.40;;
83055;SDS011;72881;43.514;1.510;2023-10-09T03:09:30;5.22;;;3.08;;
83055;SDS011;72881;43.514;1.510;2023-10-09T03:12:00;7.28;;;4.00;;
83055;SDS011;72881;43.514;1.510;2023-10-09T03:14:28;8.55;;;4.22;;
83055;SDS011;72881;43.514;1.510;2023-10-09T03:16:54;6.78;;;3.72;;
83055;SDS011;72881;43.514;1.510;2023-10-09T03:19:21;6.57;;;3.65;;
83055;SDS011;72881;43.514;1.510;2023-10-09T03:21:47;9.55;;;4.20;;
83055;SDS011;72881;43.514;1.510;2023-10-09T03:24:12;6.28;;;3.45;;
83055;SDS011;72881;43.514;1.510;2023-10-09T03:26:37;8.57;;;3.97;;
83055;SDS011;72881;43.514;1.510;2023-10-09T03:29:03;8.23;;;3.73;;
83055;SDS011;72881;43.514;1.510;2023-10-09T03:31:32;6.82;;;3.83;;
83055;SDS011;72881;43.514;1.510;2023-10-09T03:33:58;8.07;;;3.58;;
83055;SDS011;72881;43.514;1.510;2023-10-09T03:36:24;6.47;;;3.85;;
83055;SDS011;72881;43.514;1.510;2023-10-09T03:38:52;7.13;;;3.45;;
83055;SDS011;72881;43.514;1.510;2023-10-09T03:41:20;7.63;;;4.03;;
83055;SDS011;72881;43.514;1.510;2023-10-09T03:43:45;9.53;;;3.87;;
83055;SDS011;72881;43.514;1.510;2023-10-09T03:46:11;8.32;;;4.10;;
83055;SDS011;72881;43.514;1.510;2023-10-09T03:48:48;7.80;;;3.80;;
83055;SDS011;72881;43.514;1.510;2023-10-09T03:51:14;7.38;;;4.22;;
83055;SDS011;72881;43.514;1.510;2023-10-09T03:53:49;6.85;;;4.10;;
83055;SDS011;72881;43.514;1.510;2023-10-09T03:56:16;6.20;;;3.95;;
83055;SDS011;72881;43.514;1.510;2023-10-09T03:58:43;5.68;;;3.40;;
83055;SDS011;72881;43.514;1.510;2023-10-09T04:01:10;7.88;;;4.00;;
83055;SDS011;72881;43.514;1.510;2023-10-09T04:03:52;7.53;;;4.15;;
83055;SDS011;72881;43.514;1.510;2023-10-09T04:06:24;7.68;;;3.78;;
83055;SDS011;72881;43.514;1.510;2023-10-09T04:08:59;6.72;;;3.78;;
83055;SDS011;72881;43.514;1.510;2023-10-09T04:11:38;8.00;;;4.03;;
83055;SDS011;72881;43.514;1.510;2023-10-09T04:14:07;7.25;;;4.10;;
83055;SDS011;72881;43.514;1.510;2023-10-09T04:16:46;8.07;;;4.07;;
83055;SDS011;72881;43.514;1.510;2023-10-09T04:19:29;7.93;;;3.97;;
83055;SDS011;72881;43.514;1.510;2023-10-09T04:22:03;8.05;;;4.22;;
83055;SDS011;72881;43.514;1.510;2023-10-09T04:24:32;7.15;;;4.00;;
83055;SDS011;72881;43.514;1.510;2023-10-09T04:27:06;6.00;;;3.53;;
83055;SDS011;72881;43.514;1.510;2023-10-09T04:29:33;6.53;;;3.60;;
83055;SDS011;72881;43.514;1.510;2023-10-09T04:32:04;8.32;;;3.92;;
83055;SDS011;72881;43.514;1.510;2023-10-09T04:34:41;10.13;;;4.22;;
83055;SDS011;72881;43.514;1.510;2023-10-09T04:37:14;6.50;;;3.50;;
83055;SDS011;72881;43.514;1.510;2023-10-09T04:39:42;8.20;;;3.70;;
83055;SDS011;72881;43.514;1.510;2023-10-09T04:42:26;8.23;;;3.80;;
83055;SDS011;72881;43.514;1.510;2023-10-09T04:45:01;8.05;;;4.20;;
83055;SDS011;72881;43.514;1.510;2023-10-09T04:47:31;8.30;;;4.20;;
83055;SDS011;72881;43.514;1.510;2023-10-09T04:50:04;6.15;;;3.60;;
83055;SDS011;72881;43.514;1.510;2023-10-09T04:52:58;8.55;;;4.60;;
83055;SDS011;72881;43.514;1.510;2023-10-09T04:55:44;9.00;;;3.67;;
83055;SDS011;72881;43.514;1.510;2023-10-09T04:58:19;8.10;;;3.80;;
83055;SDS011;72881;43.514;1.510;2023-10-09T05:00:54;6.70;;;3.55;;
83055;SDS011;72881;43.514;1.510;2023-10-09T05:03:23;6.47;;;3.75;;
83055;SDS011;72881;43.514;1.510;2023-10-09T05:06:04;8.23;;;3.90;;
83055;SDS011;72881;43.514;1.510;2023-10-09T05:08:45;8.38;;;4.07;;
83055;SDS011;72881;43.514;1.510;2023-10-09T05:11:11;6.45;;;3.83;;
83055;SDS011;72881;43.514;1.510;2023-10-09T05:13:55;7.95;;;4.18;;
83055;SDS011;72881;43.514;1.510;2023-10-09T05:16:36;7.28;;;3.78;;
83055;SDS011;72881;43.514;1.510;2023-10-09T05:19:03;7.57;;;4.13;;
83055;SDS011;72881;43.514;1.510;2023-10-09T05:21:35;7.35;;;3.72;;
83055;SDS011;72881;43.514;1.510;2023-10-09T05:24:09;7.50;;;4.13;;
83055;SDS011;72881;43.514;1.510;2023-10-09T05:26:38;7.35;;;3.75;;
83055;SDS011;72881;43.514;1.510;2023-10-09T05:29:16;6.93;;;3.92;;
83055;SDS011;72881;43.514;1.510;2023-10-09T05:31:50;8.20;;;3.70;;
83055;SDS011;72881;43.514;1.510;2023-10-09T05:34:28;8.93;;;4.30;;
83055;SDS011;72881;43.514;1.510;2023-10-09T05:37:13;9.00;;;4.40;;
83055;SDS011;72881;43.514;1.510;2023-10-09T05:39:50;6.85;;;4.07;;
83055;SDS011;72881;43.514;1.510;2023-10-09T05:42:25;7.55;;;4.18;;
83055;SDS011;72881;43.514;1.510;2023-10-09T05:45:07;7.90;;;4.22;;
83055;SDS011;72881;43.514;1.510;2023-10-09T05:47:48;6.85;;;4.18;;
83055;SDS011;72881;43.514;1.510;2023-10-09T05:50:36;7.63;;;4.05;;
83055;SDS011;72881;43.514;1.510;2023-10-09T05:53:05;7.85;;;4.15;;
83055;SDS011;72881;43.514;1.510;2023-10-09T05:55:32;10.77;;;4.22;;
83055;SDS011;72881;43.514;1.510;2023-10-09T05:58:13;10.15;;;4.50;;
83055;SDS011;72881;43.514;1.510;2023-10-09T06:00:58;6.25;;;3.60;;
83055;SDS011;72881;43.514;1.510;2023-10-09T06:03:41;8.27;;;4.40;;
83055;SDS011;72881;43.514;1.510;2023-10-09T06:06:20;8.88;;;4.00;;
83055;SDS011;72881;43.514;1.510;2023-10-09T06:11:38;7.68;;;4.18;;
83055;SDS011;72881;43.514;1.510;2023-10-09T06:14:04;11.70;;;3.75;;
83055;SDS011;72881;43.514;1.510;2023-10-09T06:16:33;9.70;;;4.05;;
83055;SDS011;72881;43.514;1.510;2023-10-09T06:19:09;8.25;;;4.35;;
83055;SDS011;72881;43.514;1.510;2023-10-09T06:21:51;7.93;;;4.28;;
83055;SDS011;72881;43.514;1.510;2023-10-09T06:24:28;9.18;;;3.95;;
83055;SDS011;72881;43.514;1.510;2023-10-09T06:27:21;8.35;;;4.22;;
83055;SDS011;72881;43.514;1.510;2023-10-09T06:29:56;8.50;;;4.50;;
83055;SDS011;72881;43.514;1.510;2023-10-09T06:32:41;9.07;;;4.28;;
83055;SDS011;72881;43.514;1.510;2023-10-09T06:35:16;9.98;;;4.70;;
83055;SDS011;72881;43.514;1.510;2023-10-09T06:37:43;7.40;;;4.15;;
83055;SDS011;72881;43.514;1.510;2023-10-09T06:40:27;9.95;;;4.55;;
83055;SDS011;72881;43.514;1.510;2023-10-09T06:43:02;9.88;;;4.25;;
83055;SDS011;72881;43.514;1.510;2023-10-09T06:45:34;9.68;;;4.13;;
83055;SDS011;72881;43.514;1.510;2023-10-09T06:48:08;7.80;;;4.20;;
83055;SDS011;72881;43.514;1.510;2023-10-09T06:50:53;8.05;;;4.15;;
83055;SDS011;72881;43.514;1.510;2023-10-09T06:53:23;9.35;;;3.70;;
83055;SDS011;72881;43.514;1.510;2023-10-09T06:56:11;8.82;;;4.60;;
83055;SDS011;72881;43.514;1.510;2023-10-09T06:58:48;10.68;;;4.30;;
83055;SDS011;72881;43.514;1.510;2023-10-09T07:01:14;8.25;;;4.35;;
83055;SDS011;72881;43.514;1.510;2023-10-09T07:03:59;11.02;;;4.40;;
83055;SDS011;72881;43.514;1.510;2023-10-09T07:06:35;9.95;;;4.40;;
83055;SDS011;72881;43.514;1.510;2023-10-09T07:09:01;7.05;;;4.28;;
83055;SDS011;72881;43.514;1.510;2023-10-09T07:11:32;13.20;;;4.13;;
83055;SDS011;72881;43.514;1.510;2023-10-09T07:14:05;10.40;;;4.32;;
83055;SDS011;72881;43.514;1.510;2023-10-09T07:16:58;6.53;;;3.72;;
83055;SDS011;72881;43.514;1.510;2023-10-09T07:19:28;8.05;;;4.32;;
83055;SDS011;72881;43.514;1.510;2023-10-09T07:22:20;11.27;;;5.90;;
83055;SDS011;72881;43.514;1.510;2023-10-09T07:27:38;10.13;;;4.53;;
83055;SDS011;72881;43.514;1.510;2023-10-09T07:30:10;9.75;;;4.07;;
83055;SDS011;72881;43.514;1.510;2023-10-09T07:33:01;9.18;;;4.63;;
83055;SDS011;72881;43.514;1.510;2023-10-09T07:35:39;9.95;;;5.90;;
83055;SDS011;72881;43.514;1.510;2023-10-09T07:40:49;12.63;;;7.45;;
83055;SDS011;72881;43.514;1.510;2023-10-09T07:43:27;15.73;;;8.07;;
83055;SDS011;72881;43.514;1.510;2023-10-09T07:45:56;15.40;;;7.50;;
83055;SDS011;72881;43.514;1.510;2023-10-09T07:48:24;12.25;;;6.80;;
83055;SDS011;72881;43.514;1.510;2023-10-09T07:51:04;12.73;;;6.88;;
83055;SDS011;72881;43.514;1.510;2023-10-09T07:53:30;15.20;;;7.18;;
83055;SDS011;72881;43.514;1.510;2023-10-09T07:56:08;12.15;;;6.82;;
83055;SDS011;72881;43.514;1.510;2023-10-09T07:58:33;20.50;;;8.70;;
83055;SDS011;72881;43.514;1.510;2023-10-09T08:01:11;22.00;;;10.50;;
83055;SDS011;72881;43.514;1.510;2023-10-09T08:04:00;22.40;;;11.00;;
83055;SDS011;72881;43.514;1.510;2023-10-09T08:06:39;21.33;;;10.90;;
83055;SDS011;72881;43.514;1.510;2023-10-09T08:09:10;24.65;;;10.70;;
83055;SDS011;72881;43.514;1.510;2023-10-09T08:11:38;22.40;;;10.43;;
83055;SDS011;72881;43.514;1.510;2023-10-09T08:14:12;23.55;;;10.20;;
83055;SDS011;72881;43.514;1.510;2023-10-09T08:16:50;18.85;;;9.82;;
83055;SDS011;72881;43.514;1.510;2023-10-09T08:19:31;19.42;;;8.85;;
83055;SDS011;72881;43.514;1.510;2023-10-09T08:21:59;17.48;;;8.68;;
83055;SDS011;72881;43.514;1.510;2023-10-09T08:24:43;16.33;;;8.63;;
83055;SDS011;72881;43.514;1.510;2023-10-09T08:27:17;20.67;;;9.30;;
83055;SDS011;72881;43.514;1.510;2023-10-09T08:32:41;22.33;;;10.07;;
83055;SDS011;72881;43.514;1.510;2023-10-09T08:35:26;21.80;;;10.43;;
83055;SDS011;72881;43.514;1.510;2023-10-09T08:37:57;24.17;;;10.73;;
83055;SDS011;72881;43.514;1.510;2023-10-09T08:40:34;22.50;;;10.40;;
83055;SDS011;72881;43.514;1.510;2023-10-09T08:43:29;22.10;;;10.90;;
83055;SDS011;72881;43.514;1.510;2023-10-09T08:45:56;23.50;;;10.68;;
83055;SDS011;72881;43.514;1.510;2023-10-09T08:48:27;24.27;;;10.60;;
83055;SDS011;72881;43.514;1.510;2023-10-09T08:50:54;23.67;;;10.30;;
83055;SDS011;72881;43.514;1.510;2023-10-09T08:53:21;23.70;;;10.82;;
83055;SDS011;72881;43.514;1.510;2023-10-09T08:55:47;23.40;;;10.82;;
83055;SDS011;72881;43.514;1.510;2023-10-09T08:58:14;22.48;;;10.25;;
83055;SDS011;72881;43.514;1.510;2023-10-09T09:00:47;26.35;;;11.60;;
83055;SDS011;72881;43.514;1.510;2023-10-09T09:03:16;24.55;;;12.20;;
83055;SDS011;72881;43.514;1.510;2023-10-09T09:08:24;23.42;;;10.18;;
83055;SDS011;72881;43.514;1.510;2023-10-09T09:13:25;23.25;;;10.25;;
83055;SDS011;72881;43.514;1.510;2023-10-09T09:15:56;25.08;;;10.10;;
83055;SDS011;72881;43.514;1.510;2023-10-09T09:18:22;19.13;;;8.75;;
83055;SDS011;72881;43.514;1.510;2023-10-09T09:20:48;19.90;;;8.77;;
83055;SDS011;72881;43.514;1.510;2023-10-09T09:23:18;22.42;;;9.05;;
83055;SDS011;72881;43.514;1.510;2023-10-09T09:25:48;18.33;;;8.50;;
83055;SDS011;72881;43.514;1.510;2023-10-09T09:28:23;21.02;;;8.45;;
83055;SDS011;72881;43.514;1.510;2023-10-09T09:30:51;16.80;;;8.55;;
83055;SDS011;72881;43.514;1.510;2023-10-09T09:33:21;16.83;;;7.35;;
83055;SDS011;72881;43.514;1.510;2023-10-09T09:35:56;16.23;;;8.00;;
83055;SDS011;72881;43.514;1.510;2023-10-09T09:38:27;14.73;;;6.93;;
83055;SDS011;72881;43.514;1.510;2023-10-09T09:40:54;20.45;;;6.38;;
83055;SDS011;72881;43.514;1.510;2023-10-09T09:43:22;15.18;;;7.03;;
83055;SDS011;72881;43.514;1.510;2023-10-09T09:45:47;11.95;;;5.90;;
83055;SDS011;72881;43.514;1.510;2023-10-09T09:48:14;12.85;;;6.38;;
83055;SDS011;72881;43.514;1.510;2023-10-09T09:50:41;13.80;;;5.90;;
83055;SDS011;72881;43.514;1.510;2023-10-09T09:53:15;13.48;;;6.13;;
83055;SDS011;72881;43.514;1.510;2023-10-09T09:55:49;11.32;;;5.55;;
83055;SDS011;72881;43.514;1.510;2023-10-09T09:58:24;11.77;;;4.90;;
83055;SDS011;72881;43.514;1.510;2023-10-09T10:00:53;12.05;;;5.25;;
83055;SDS011;72881;43.514;1.510;2023-10-09T10:03:33;10.88;;;4.75;;
83055;SDS011;72881;43.514;1.510;2023-10-09T10:06:01;12.27;;;4.93;;
83055;SDS011;72881;43.514;1.510;2023-10-09T10:08:34;9.50;;;4.47;;
83055;SDS011;72881;43.514;1.510;2023-10-09T10:11:00;11.43;;;5.13;;
83055;SDS011;72881;43.514;1.510;2023-10-09T10:16:05;10.38;;;4.57;;
83055;SDS011;72881;43.514;1.510;2023-10-09T10:18:56;7.38;;;4.15;;
83055;SDS011;72881;43.514;1.510;2023-10-09T10:21:32;12.18;;;4.22;;
83055;SDS011;72881;43.514;1.510;2023-10-09T10:23:59;9.50;;;4.00;;
83055;SDS011;72881;43.514;1.510;2023-10-09T10:26:31;7.50;;;3.92;;
83055;SDS011;72881;43.514;1.510;2023-10-09T10:29:17;8.73;;;3.90;;
83055;SDS011;72881;43.514;1.510;2023-10-09T10:31:59;6.38;;;3.58;;
83055;SDS011;72881;43.514;1.510;2023-10-09T10:37:41;10.43;;;3.75;;
83055;SDS011;72881;43.514;1.510;2023-10-09T10:40:22;7.07;;;3.65;;
83055;SDS011;72881;43.514;1.510;2023-10-09T10:43:23;6.82;;;3.30;;
83055;SDS011;72881;43.514;1.510;2023-10-09T10:46:05;6.60;;;3.40;;
83055;SDS011;72881;43.514;1.510;2023-10-09T10:48:50;5.25;;;3.28;;
83055;SDS011;72881;43.514;1.510;2023-10-09T10:51:26;11.30;;;3.42;;
83055;SDS011;72881;43.514;1.510;2023-10-09T10:54:00;5.55;;;3.50;;
83055;SDS011;72881;43.514;1.510;2023-10-09T10:56:46;7.63;;;3.22;;
83055;SDS011;72881;43.514;1.510;2023-10-09T10:59:12;8.43;;;3.05;;
83055;SDS011;72881;43.514;1.510;2023-10-09T11:01:38;7.22;;;3.50;;
83055;SDS011;72881;43.514;1.510;2023-10-09T11:04:18;5.55;;;3.28;;
83055;SDS011;72881;43.514;1.510;2023-10-09T11:07:05;3.90;;;2.95;;
83055;SDS011;72881;43.514;1.510;2023-10-09T11:12:31;5.22;;;2.92;;
83055;SDS011;72881;43.514;1.510;2023-10-09T11:15:05;6.15;;;3.35;;
83055;SDS011;72881;43.514;1.510;2023-10-09T11:17:33;5.95;;;3.13;;
83055;SDS011;72881;43.514;1.510;2023-10-09T11:20:01;6.90;;;3.60;;
83055;SDS011;72881;43.514;1.510;2023-10-09T11:22:49;6.43;;;3.80;;
83055;SDS011;72881;43.514;1.510;2023-10-09T11:25:33;5.88;;;3.20;;
83055;SDS011;72881;43.514;1.510;2023-10-09T11:27:59;5.57;;;3.53;;
83055;SDS011;72881;43.514;1.510;2023-10-09T11:30:44;8.32;;;3.65;;
83055;SDS011;72881;43.514;1.510;2023-10-09T11:33:11;8.10;;;3.58;;
83055;SDS011;72881;43.514;1.510;2023-10-09T11:35:39;6.75;;;3.80;;
83055;SDS011;72881;43.514;1.510;2023-10-09T11:38:08;6.32;;;3.80;;
83055;SDS011;72881;43.514;1.510;2023-10-09T11:40:46;7.78;;;3.67;;
83055;SDS011;72881;43.514;1.510;2023-10-09T11:43:17;7.70;;;3.55;;
83055;SDS011;72881;43.514;1.510;2023-10-09T11:45:51;7.95;;;3.63;;
83055;SDS011;72881;43.514;1.510;2023-10-09T11:48:22;8.30;;;3.97;;
83055;SDS011;72881;43.514;1.510;2023-10-09T11:50:53;7.60;;;4.13;;
83055;SDS011;72881;43.514;1.510;2023-10-09T11:53:21;6.13;;;4.10;;
83055;SDS011;72881;43.514;1.510;2023-10-09T11:55:47;10.30;;;4.07;;
83055;SDS011;72881;43.514;1.510;2023-10-09T11:58:15;7.63;;;3.72;;
83055;SDS011;72881;43.514;1.510;2023-10-09T12:00:48;7.28;;;3.80;;
83055;SDS011;72881;43.514;1.510;2023-10-09T12:03:14;8.32;;;3.75;;
83055;SDS011;72881;43.514;1.510;2023-10-09T12:05:40;6.88;;;3.80;;
83055;SDS011;72881;43.514;1.510;2023-10-09T12:08:10;7.53;;;3.80;;
83055;SDS011;72881;43.514;1.510;2023-10-09T12:10:39;6.13;;;3.22;;
83055;SDS011;72881;43.514;1.510;2023-10-09T12:13:06;7.30;;;3.75;;
83055;SDS011;72881;43.514;1.510;2023-10-09T12:15:32;5.70;;;3.55;;
83055;SDS011;72881;43.514;1.510;2023-10-09T12:18:04;6.50;;;3.53;;
83055;SDS011;72881;43.514;1.510;2023-10-09T12:20:34;8.20;;;3.55;;
83055;SDS011;72881;43.514;1.510;2023-10-09T12:23:00;5.43;;;3.40;;
83055;SDS011;72881;43.514;1.510;2023-10-09T12:25:26;12.13;;;4.00;;
83055;SDS011;72881;43.514;1.510;2023-10-09T12:27:56;7.93;;;3.45;;
83055;SDS011;72881;43.514;1.510;2023-10-09T12:30:22;7.65;;;3.95;;
83055;SDS011;72881;43.514;1.510;2023-10-09T12:32:54;6.38;;;3.28;;
83055;SDS011;72881;43.514;1.510;2023-10-09T12:35:22;8.10;;;3.40;;
83055;SDS011;72881;43.514;1.510;2023-10-09T12:37:49;6.32;;;3.30;;
83055;SDS011;72881;43.514;1.510;2023-10-09T12:40:16;6.35;;;3.67;;
83055;SDS011;72881;43.514;1.510;2023-10-09T12:42:49;6.60;;;3.55;;
83055;SDS011;72881;43.514;1.510;2023-10-09T12:45:15;7.47;;;3.38;;
83055;SDS011;72881;43.514;1.510;2023-10-09T12:47:42;9.02;;;3.95;;
83055;SDS011;72881;43.514;1.510;2023-10-09T12:50:08;6.53;;;3.33;;
83055;SDS011;72881;43.514;1.510;2023-10-09T12:52:38;5.45;;;3.00;;
83055;SDS011;72881;43.514;1.510;2023-10-09T12:55:04;8.15;;;2.78;;
83055;SDS011;72881;43.514;1.510;2023-10-09T12:57:44;7.38;;;3.20;;
83055;SDS011;72881;43.514;1.510;2023-10-09T13:00:09;8.10;;;3.70;;
83055;SDS011;72881;43.514;1.510;2023-10-09T13:02:37;7.25;;;3.40;;
83055;SDS011;72881;43.514;1.510;2023-10-09T13:05:03;9.00;;;3.47;;
83055;SDS011;72881;43.514;1.510;2023-10-09T13:07:30;7.63;;;3.50;;
83055;SDS011;72881;43.514;1.510;2023-10-09T13:09:56;5.95;;;3.35;;
83055;SDS011;72881;43.514;1.510;2023-10-09T13:12:38;5.82;;;3.22;;
83055;SDS011;72881;43.514;1.510;2023-10-09T13:15:07;8.98;;;3.78;;
83055;SDS011;72881;43.514;1.510;2023-10-09T13:17:35;7.20;;;3.15;;
83055;SDS011;72881;43.514;1.510;2023-10-09T13:20:03;7.90;;;3.58;;
83055;SDS011;72881;43.514;1.510;2023-10-09T13:22:39;5.78;;;3.80;;
83055;SDS011;72881;43.514;1.510;2023-10-09T13:25:06;8.02;;;3.95;;
83055;SDS011;72881;43.514;1.510;2023-10-09T13:27:32;7.50;;;3.75;;
83055;SDS011;72881;43.514;1.510;2023-10-09T13:30:02;8.30;;;3.75;;
83055;SDS011;72881;43.514;1.510;2023-10-09T13:32:33;5.68;;;3.60;;
83055;SDS011;72881;43.514;1.510;2023-10-09T13:35:01;8.43;;;3.45;;
83055;SDS011;72881;43.514;1.510;2023-10-09T13:37:28;6.95;;;3.45;;
83055;SDS011;72881;43.514;1.510;2023-10-09T13:39:56;5.82;;;3.20;;
83055;SDS011;72881;43.514;1.510;2023-10-09T13:42:22;8.27;;;3.20;;
83055;SDS011;72881;43.514;1.510;2023-10-09T13:44:51;7.13;;;3.40;;
83055;SDS011;72881;43.514;1.510;2023-10-09T13:47:19;7.22;;;3.20;;
83055;SDS011;72881;43.514;1.510;2023-10-09T13:49:45;6.85;;;3.25;;
83055;SDS011;72881;43.514;1.510;2023-10-09T13:52:15;6.53;;;3.17;;
83055;SDS011;72881;43.514;1.510;2023-10-09T13:54:43;5.72;;;3.42;;
83055;SDS011;72881;43.514;1.510;2023-10-09T13:57:13;6.47;;;2.95;;
83055;SDS011;72881;43.514;1.510;2023-10-09T13:59:40;6.13;;;3.08;;
83055;SDS011;72881;43.514;1.510;2023-10-09T14:02:14;7.20;;;3.88;;
83055;SDS011;72881;43.514;1.510;2023-10-09T14:04:44;6.45;;;3.30;;
83055;SDS011;72881;43.514;1.510;2023-10-09T14:07:11;5.53;;;3.13;;
83055;SDS011;72881;43.514;1.510;2023-10-09T14:09:41;7.30;;;3.15;;
83055;SDS011;72881;43.514;1.510;2023-10-09T14:12:09;6.55;;;3.28;;
83055;SDS011;72881;43.514;1.510;2023-10-09T14:14:39;7.55;;;3.65;;
83055;SDS011;72881;43.514;1.510;2023-10-09T14:17:12;5.10;;;3.15;;
83055;SDS011;72881;43.514;1.510;2023-10-09T14:19:41;6.82;;;3.35;;
83055;SDS011;72881;43.514;1.510;2023-10-09T14:22:16;5.13;;;2.85;;
83055;SDS011;72881;43.514;1.510;2023-10-09T14:24:45;8.18;;;3.33;;
83055;SDS011;72881;43.514;1.510;2023-10-09T14:29:42;6.07;;;3.42;;
83055;SDS011;72881;43.514;1.510;2023-10-09T14:32:10;6.45;;;3.20;;
83055;SDS011;72881;43.514;1.510;2023-10-09T14:34:38;7.00;;;3.33;;
83055;SDS011;72881;43.514;1.510;2023-10-09T14:37:07;7.72;;;3.03;;
83055;SDS011;72881;43.514;1.510;2023-10-09T14:42:02;5.68;;;3.08;;
83055;SDS011;72881;43.514;1.510;2023-10-09T14:44:35;5.70;;;3.13;;
83055;SDS011;72881;43.514;1.510;2023-10-09T14:47:03;5.57;;;2.88;;
83055;SDS011;72881;43.514;1.510;2023-10-09T14:49:32;8.02;;;3.20;;
83055;SDS011;72881;43.514;1.510;2023-10-09T14:52:05;4.93;;;3.00;;
83055;SDS011;72881;43.514;1.510;2023-10-09T14:54:33;6.68;;;3.40;;
83055;SDS011;72881;43.514;1.510;2023-10-09T14:57:03;7.15;;;3.17;;
83055;SDS011;72881;43.514;1.510;2023-10-09T14:59:34;7.57;;;3.03;;
83055;SDS011;72881;43.514;1.510;2023-10-09T15:01:59;6.88;;;3.10;;
83055;SDS011;72881;43.514;1.510;2023-10-09T15:04:25;8.70;;;3.22;;
83055;SDS011;72881;43.514;1.510;2023-10-09T15:06:51;5.88;;;3.05;;
83055;SDS011;72881;43.514;1.510;2023-10-09T15:09:17;6.32;;;3.15;;
83055;SDS011;72881;43.514;1.510;2023-10-09T15:11:53;8.38;;;3.47;;
83055;SDS011;72881;43.514;1.510;2023-10-09T15:14:18;7.65;;;3.25;;
83055;SDS011;72881;43.514;1.510;2023-10-09T15:16:44;6.33;;;3.13;;
83055;SDS011;72881;43.514;1.510;2023-10-09T15:19:11;7.65;;;3.10;;
83055;SDS011;72881;43.514;1.510;2023-10-09T15:21:37;8.93;;;3.28;;
83055;SDS011;72881;43.514;1.510;2023-10-09T15:24:09;8.10;;;3.15;;
83055;SDS011;72881;43.514;1.510;2023-10-09T15:26:40;6.60;;;3.00;;
83055;SDS011;72881;43.514;1.510;2023-10-09T15:29:06;6.20;;;2.88;;
83055;SDS011;72881;43.514;1.510;2023-10-09T15:31:32;6.67;;;3.30;;
83055;SDS011;72881;43.514;1.510;2023-10-09T15:33:58;5.63;;;2.85;;
83055;SDS011;72881;43.514;1.510;2023-10-09T15:36:24;6.75;;;3.10;;
83055;SDS011;72881;43.514;1.510;2023-10-09T15:38:53;6.15;;;3.28;;
83055;SDS011;72881;43.514;1.510;2023-10-09T15:41:22;6.18;;;2.80;;
83055;SDS011;72881;43.514;1.510;2023-10-09T15:43:47;7.20;;;3.10;;
83055;SDS011;72881;43.514;1.510;2023-10-09T15:46:13;6.90;;;3.05;;